Time;durP1;ratioP1;P1;durP2;ratioP2;P2;SDS_P1;SDS_P2;PMS_P1;PMS_P2;Temp;Humidity;BMP_temperature;BMP_pressure;BME280_temperature;BME280_humidity;BME280_pressure;Samples;Min_cycle;Max_cycle;Signal;HPM_P1;HPM_P2
2022/06/17 00:02:08;;;;;;;1999.90;999.90;;;22.60;96.30;;;;;;4974384;28;20042;-81
2022/06/17 00:04:34;;;;;;;1999.90;999.90;;;22.60;96.40;;;;;;4974590;28;20505;-76
2022/06/17 00:07:11;;;;;;;1999.90;999.90;;;22.50;96.40;;;;;;4974488;28;20059;-76
2022/06/17 00:09:37;;;;;;;1999.90;999.90;;;22.50;96.40;;;;;;4947617;28;20020;-76
2022/06/17 00:12:06;;;;;;;1999.90;999.90;;;22.40;96.30;;;;;;4964330;28;20382;-81
2022/06/17 00:15:11;;;;;;;1999.90;999.90;;;22.40;96.40;;;;;;4974554;28;20027;-76
2022/06/17 00:17:20;;;;;;;1999.90;999.90;;;22.40;96.40;;;;;;4968692;28;20035;-76
2022/06/17 00:19:45;;;;;;;1999.90;999.90;;;22.30;96.70;;;;;;4973633;28;20104;-81
2022/06/17 00:22:11;;;;;;;1999.90;999.90;;;22.30;96.90;;;;;;4954149;28;20034;-76
2022/06/17 00:24:37;;;;;;;1999.90;999.90;;;22.20;97.10;;;;;;4957041;28;20027;-76
2022/06/17 00:27:03;;;;;;;1999.90;999.90;;;22.10;97.20;;;;;;4956789;28;20034;-81
2022/06/17 00:29:30;;;;;;;1999.90;999.90;;;22.10;97.40;;;;;;4973822;28;20077;-76
2022/06/17 00:31:56;;;;;;;1999.90;999.90;;;22.00;97.40;;;;;;4961121;28;20375;-81
2022/06/17 00:34:23;;;;;;;1999.90;999.90;;;22.00;97.40;;;;;;4966353;28;20557;-76
2022/06/17 00:36:55;;;;;;;1999.90;999.90;;;22.00;97.40;;;;;;4968317;28;20402;-81
2022/06/17 00:39:24;;;;;;;1999.90;999.90;;;21.90;97.50;;;;;;4970963;28;20375;-80
2022/06/17 00:41:55;;;;;;;1999.90;999.90;;;21.90;97.60;;;;;;4973833;28;20042;-81
2022/06/17 00:44:45;;;;;;;1999.90;999.90;;;21.90;97.60;;;;;;4971342;28;20152;-76
2022/06/17 00:47:38;;;;;;;1999.90;999.90;;;21.90;97.70;;;;;;4969234;28;20109;-76
2022/06/17 00:50:32;;;;;;;1999.90;999.90;;;21.80;97.80;;;;;;4974120;28;20074;-81
2022/06/17 00:53:27;;;;;;;1999.90;999.90;;;21.80;97.90;;;;;;4956897;28;20066;-81
2022/06/17 00:55:59;;;;;;;1999.90;999.90;;;21.80;98.30;;;;;;4956847;28;20027;-81
2022/06/17 00:58:30;;;;;;;1999.90;999.90;;;21.70;98.40;;;;;;4970502;28;20487;-76
2022/06/17 01:00:58;;;;;;;1999.90;999.90;;;21.70;98.30;;;;;;4974344;28;20387;-76
2022/06/17 01:03:28;;;;;;;1999.90;999.90;;;21.70;98.50;;;;;;4975392;28;20033;-78
2022/06/17 01:06:16;;;;;;;1999.90;999.90;;;21.60;98.40;;;;;;4999331;28;20034;-79
2022/06/17 01:11:53;;;;;;;1999.90;999.90;;;21.60;98.60;;;;;;4985703;28;20049;-76
2022/06/17 01:14:20;;;;;;;1999.90;999.90;;;21.50;98.70;;;;;;4943455;28;20033;-75
2022/06/17 01:16:48;;;;;;;1999.90;999.90;;;21.50;98.70;;;;;;4968127;28;20035;-81
2022/06/17 01:19:36;;;;;;;1999.90;999.90;;;21.50;98.80;;;;;;4971779;28;20375;-81
2022/06/17 01:22:25;;;;;;;1999.90;999.90;;;21.40;98.70;;;;;;4971315;28;20035;-76
2022/06/17 01:25:13;;;;;;;1999.90;999.90;;;21.40;98.70;;;;;;4973522;28;20027;-80
2022/06/17 01:27:44;;;;;;;1999.90;999.90;;;21.40;98.80;;;;;;4972951;28;20049;-81
2022/06/17 01:30:18;;;;;;;1999.90;999.90;;;21.30;98.90;;;;;;4952383;29;20023;-81
2022/06/17 01:33:07;;;;;;;1999.90;999.90;;;21.30;99.00;;;;;;4948666;28;20034;-81
2022/06/17 01:35:37;;;;;;;1999.90;999.90;;;21.30;99.00;;;;;;4973409;28;20023;-76
2022/06/17 01:38:03;;;;;;;1999.90;999.90;;;21.30;98.90;;;;;;4935183;28;20049;-81
2022/06/17 01:40:29;;;;;;;1999.90;999.90;;;21.30;99.10;;;;;;4956172;28;20039;-76
2022/06/17 01:43:00;;;;;;;1999.90;999.90;;;21.30;99.00;;;;;;4972056;28;20486;-81
2022/06/17 01:45:26;;;;;;;1999.90;999.90;;;21.20;99.10;;;;;;4973032;28;20367;-80
2022/06/17 01:47:52;;;;;;;1999.90;999.90;;;21.20;99.30;;;;;;4970381;28;20050;-81
2022/06/17 01:50:21;;;;;;;1999.90;999.90;;;21.20;99.30;;;;;;4973682;28;20442;-76
2022/06/17 01:53:07;;;;;;;1999.90;999.90;;;21.20;99.50;;;;;;4970851;28;20138;-76
2022/06/17 01:55:40;;;;;;;1999.90;999.90;;;21.10;99.40;;;;;;4957404;28;20490;-80
2022/06/17 01:58:32;;;;;;;1999.90;999.90;;;21.20;99.70;;;;;;4975127;28;20109;-81
2022/06/17 02:01:00;;;;;;;1999.90;999.90;;;21.10;99.70;;;;;;4992020;28;20054;-76
2022/06/17 02:03:32;;;;;;;1999.90;999.90;;;21.00;99.90;;;;;;4976851;28;20085;-76
2022/06/17 02:06:05;;;;;;;1999.90;999.90;;;21.00;99.80;;;;;;4946646;28;20486;-76
2022/06/17 02:08:31;;;;;;;1999.90;999.90;;;21.10;99.80;;;;;;4974390;28;20038;-80
2022/06/17 02:10:57;;;;;;;1999.90;999.90;;;21.00;99.80;;;;;;4936638;29;20035;-81
2022/06/17 02:13:23;;;;;;;1999.90;999.90;;;21.00;99.80;;;;;;4969870;28;20030;-76
2022/06/17 02:15:52;;;;;;;1999.90;999.90;;;21.00;99.90;;;;;;4976548;28;20035;-75
2022/06/17 02:18:19;;;;;;;1999.90;999.90;;;20.90;99.90;;;;;;4971149;28;20474;-76
2022/06/17 02:20:48;;;;;;;1999.90;999.90;;;20.90;99.90;;;;;;4971364;28;20411;-80
2022/06/17 02:23:14;;;;;;;1999.90;999.90;;;20.80;99.90;;;;;;4974794;28;20434;-80
2022/06/17 02:25:44;;;;;;;1999.90;999.90;;;20.80;99.90;;;;;;4976878;28;20019;-76
2022/06/17 02:28:11;;;;;;;1999.90;999.90;;;20.70;99.90;;;;;;4976548;28;20091;-81
2022/06/17 02:30:40;;;;;;;1999.90;999.90;;;20.70;99.90;;;;;;4969273;28;20073;-76
2022/06/17 02:33:09;;;;;;;1999.90;999.90;;;20.70;99.90;;;;;;4958965;28;20402;-80
2022/06/17 02:35:46;;;;;;;1999.90;999.90;;;20.70;99.90;;;;;;4991795;28;20015;-78
2022/06/17 02:38:21;;;;;;;1999.90;999.90;;;20.60;99.90;;;;;;5001837;28;20038;-80
2022/06/17 02:40:52;;;;;;;1999.90;999.90;;;20.60;99.90;;;;;;4976269;28;20093;-75
2022/06/17 02:43:26;;;;;;;1999.90;999.90;;;20.60;99.90;;;;;;4968906;28;20518;-75
2022/06/17 02:46:02;;;;;;;1999.90;999.90;;;20.60;99.90;;;;;;4965828;28;20024;-75
2022/06/17 02:48:46;;;;;;;1999.90;999.90;;;20.60;99.90;;;;;;4957051;28;20019;-80
2022/06/17 02:51:13;;;;;;;1999.90;999.90;;;20.60;99.70;;;;;;4971971;28;20035;-75
2022/06/17 02:53:40;;;;;;;1999.90;999.90;;;20.70;99.60;;;;;;4973764;28;20097;-81
2022/06/17 02:56:36;;;;;;;1999.90;999.90;;;20.70;99.50;;;;;;4958059;28;20086;-76
2022/06/17 02:59:28;;;;;;;1999.90;999.90;;;20.70;99.50;;;;;;4951118;28;20038;-75
2022/06/17 03:02:00;;;;;;;1999.90;999.90;;;20.80;99.30;;;;;;4976071;28;20506;-81
2022/06/17 03:04:28;;;;;;;1999.90;999.90;;;20.80;99.10;;;;;;4975964;28;20035;-80
2022/06/17 03:06:54;;;;;;;1999.90;999.90;;;20.70;99.10;;;;;;4975488;28;20030;-75
2022/06/17 03:09:27;;;;;;;1999.90;999.90;;;20.80;99.30;;;;;;4966892;28;20023;-75
2022/06/17 03:12:08;;;;;;;1999.90;999.90;;;20.80;99.30;;;;;;4951785;29;20082;-76
2022/06/17 03:14:41;;;;;;;1999.90;999.90;;;20.80;99.70;;;;;;4965235;28;20042;-81
2022/06/17 03:17:10;;;;;;;1999.90;999.90;;;20.70;99.50;;;;;;4970327;28;20046;-80
2022/06/17 03:19:36;;;;;;;1999.90;999.90;;;20.60;99.50;;;;;;4974613;28;20035;-81
2022/06/17 03:22:11;;;;;;;1999.90;999.90;;;20.50;99.70;;;;;;4940849;29;20186;-80
2022/06/17 03:25:12;;;;;;;1999.90;999.90;;;20.50;99.70;;;;;;4950147;28;20109;-76
2022/06/17 03:27:51;;;;;;;1999.90;999.90;;;20.50;99.70;;;;;;4897347;28;20412;-80
2022/06/17 03:30:33;;;;;;;1999.90;999.90;;;20.40;99.60;;;;;;4970656;28;20023;-76
2022/06/17 03:33:08;;;;;;;1999.90;999.90;;;20.40;99.80;;;;;;4974059;28;20042;-76
2022/06/17 03:35:36;;;;;;;1999.90;999.90;;;20.40;99.80;;;;;;4975432;28;20038;-80
2022/06/17 03:38:15;;;;;;;1999.90;999.90;;;20.40;99.80;;;;;;4957569;28;20030;-80
2022/06/17 03:40:45;;;;;;;1999.90;999.90;;;20.40;99.80;;;;;;4974926;28;20035;-80
2022/06/17 03:43:15;;;;;;;1999.90;999.90;;;20.30;99.80;;;;;;4973720;28;20051;-80
2022/06/17 03:45:50;;;;;;;1999.90;999.90;;;20.30;99.90;;;;;;4972645;28;20375;-75
2022/06/17 03:48:35;;;;;;;1999.90;999.90;;;20.30;99.90;;;;;;4954831;28;20433;-74
2022/06/17 03:51:01;;;;;;;1999.90;999.90;;;20.30;99.90;;;;;;4956446;28;20449;-76
2022/06/17 03:53:28;;;;;;;1999.90;999.90;;;20.30;99.80;;;;;;4974525;28;20086;-80
2022/06/17 03:56:07;;;;;;;1999.90;999.90;;;20.30;99.80;;;;;;4941510;28;20474;-80
2022/06/17 03:58:33;;;;;;;1999.90;999.90;;;20.30;99.90;;;;;;4971523;28;20018;-76
2022/06/17 04:01:19;;;;;;;1999.90;999.90;;;20.30;99.90;;;;;;4969409;28;20398;-76
2022/06/17 04:03:51;;;;;;;1999.90;999.90;;;20.30;99.90;;;;;;4954938;28;20023;-76
2022/06/17 04:06:22;;;;;;;1999.90;999.90;;;20.20;99.90;;;;;;4963549;28;20027;-80
2022/06/17 04:09:22;;;;;;;1999.90;999.90;;;20.20;99.90;;;;;;4970130;28;20019;-80
2022/06/17 04:11:51;;;;;;;1999.90;999.90;;;20.20;99.90;;;;;;4949700;29;20054;-80
2022/06/17 04:14:36;;;;;;;1999.90;999.90;;;20.20;99.90;;;;;;4961270;28;20053;-75
2022/06/17 04:17:25;;;;;;;1999.90;999.90;;;20.30;99.90;;;;;;4966679;28;20215;-80
2022/06/17 04:20:17;;;;;;;1999.90;999.90;;;20.30;99.90;;;;;;4972257;28;20041;-80
2022/06/17 04:22:46;;;;;;;1999.90;999.90;;;20.20;99.90;;;;;;4931134;28;20038;-80
2022/06/17 04:25:18;;;;;;;1999.90;999.90;;;20.20;99.90;;;;;;4974438;28;20023;-80
2022/06/17 04:27:56;;;;;;;1999.90;999.90;;;20.20;99.90;;;;;;4974170;28;20023;-80
2022/06/17 04:30:27;;;;;;;1999.90;999.90;;;20.20;99.90;;;;;;4968919;28;20163;-79
2022/06/17 04:32:58;;;;;;;1999.90;999.90;;;20.20;99.90;;;;;;4967640;28;20019;-80
2022/06/17 04:35:23;;;;;;;1999.90;999.90;;;20.20;99.90;;;;;;4957143;28;20501;-80
2022/06/17 04:37:49;;;;;;;1999.90;999.90;;;20.20;99.90;;;;;;4973658;28;20114;-79
2022/06/17 04:40:40;;;;;;;1999.90;999.90;;;20.20;99.90;;;;;;4969635;28;20073;-75
2022/06/17 04:43:17;;;;;;;1999.90;999.90;;;20.20;99.90;;;;;;4960987;28;20034;-76
2022/06/17 04:45:57;;;;;;;1999.90;999.90;;;20.20;99.90;;;;;;4962369;28;20023;-80
2022/06/17 04:48:23;;;;;;;1999.90;999.90;;;20.20;99.90;;;;;;4954269;28;20018;-76
2022/06/17 04:50:49;;;;;;;1999.90;999.90;;;20.10;99.90;;;;;;4951449;28;20035;-76
2022/06/17 04:53:16;;;;;;;1999.90;999.90;;;20.10;99.90;;;;;;4973243;28;20070;-80
2022/06/17 04:55:44;;;;;;;1999.90;999.90;;;20.20;99.90;;;;;;4957160;28;20035;-76
2022/06/17 04:58:18;;;;;;;1999.90;999.90;;;20.30;99.90;;;;;;4971422;28;20117;-80
2022/06/17 05:00:48;;;;;;;1999.90;999.90;;;20.30;99.90;;;;;;4973806;28;20089;-76
2022/06/17 05:03:15;;;;;;;1999.90;999.90;;;20.40;99.90;;;;;;4973532;28;20023;-76
2022/06/17 05:05:44;;;;;;;1999.90;999.90;;;20.40;99.90;;;;;;4978149;28;20030;-79
2022/06/17 05:08:28;;;;;;;1999.90;999.90;;;20.50;99.90;;;;;;4999113;28;20027;-79
2022/06/17 05:11:04;;;;;;;1999.90;999.90;;;20.60;99.90;;;;;;4973412;28;20074;-79
2022/06/17 05:13:40;;;;;;;1999.90;999.90;;;20.70;99.90;;;;;;4978979;28;20031;-79
2022/06/17 05:16:12;;;;;;;1999.90;999.90;;;20.80;99.90;;;;;;4973010;28;20487;-75
2022/06/17 05:18:38;;;;;;;1999.90;999.90;;;21.00;99.90;;;;;;4969865;28;20054;-75
2022/06/17 05:21:04;;;;;;;1999.90;999.90;;;21.10;99.60;;;;;;4972963;28;20027;-75
2022/06/17 05:23:29;;;;;;;1999.90;999.90;;;21.30;99.30;;;;;;4971583;28;20042;-79
2022/06/17 05:25:55;;;;;;;1999.90;999.90;;;21.40;99.10;;;;;;4973819;28;20482;-80
2022/06/17 05:28:21;;;;;;;1999.90;999.90;;;21.50;99.00;;;;;;4956133;28;20033;-75
2022/06/17 05:30:53;;;;;;;1999.90;999.90;;;21.50;98.90;;;;;;4965743;28;20046;-75
2022/06/17 05:33:20;;;;;;;1999.90;999.90;;;21.60;98.70;;;;;;4973828;28;20034;-80
2022/06/17 05:35:47;;;;;;;1999.90;999.90;;;21.60;98.60;;;;;;4964651;28;20028;-79
2022/06/17 05:38:13;;;;;;;1999.90;999.90;;;21.70;98.60;;;;;;4973666;28;20426;-80
2022/06/17 05:40:39;;;;;;;1999.90;999.90;;;21.70;98.40;;;;;;4940923;28;20088;-75
2022/06/17 05:43:06;;;;;;;1999.90;999.90;;;21.80;98.30;;;;;;4970674;28;20039;-80
2022/06/17 05:45:32;;;;;;;1999.90;999.90;;;21.90;98.30;;;;;;4975733;28;20057;-75
2022/06/17 05:47:58;;;;;;;1999.90;999.90;;;22.10;98.20;;;;;;4973414;28;20022;-76
2022/06/17 05:50:25;;;;;;;1999.90;999.90;;;22.20;98.00;;;;;;4976611;28;20034;-79
2022/06/17 05:52:58;;;;;;;1999.90;999.90;;;22.30;97.90;;;;;;4955193;28;20064;-80
2022/06/17 05:55:26;;;;;;;1999.90;999.90;;;22.50;97.40;;;;;;4957337;28;20517;-80
2022/06/17 05:57:52;;;;;;;1999.90;999.90;;;22.70;97.30;;;;;;4957359;28;20034;-80
2022/06/17 06:00:18;;;;;;;1999.90;999.90;;;22.80;96.90;;;;;;4974492;28;20031;-75
2022/06/17 06:02:44;;;;;;;1999.90;999.90;;;22.90;96.50;;;;;;4973740;28;20038;-80
2022/06/17 06:05:17;;;;;;;1999.90;999.90;;;23.10;96.20;;;;;;4968059;28;20018;-81
2022/06/17 06:07:43;;;;;;;1999.90;999.90;;;23.30;95.90;;;;;;4974452;28;20026;-76
2022/06/17 06:10:09;;;;;;;1999.90;999.90;;;23.50;95.70;;;;;;4937907;29;20230;-75
2022/06/17 06:12:54;;;;;;;1999.90;999.90;;;23.70;95.20;;;;;;4969872;28;20026;-80
2022/06/17 06:15:31;;;;;;;1999.90;999.90;;;23.80;94.90;;;;;;4947424;28;20034;-80
2022/06/17 06:17:56;;;;;;;1999.90;999.90;;;24.10;94.90;;;;;;4960311;28;20077;-80
2022/06/17 06:20:22;;;;;;;1999.90;999.90;;;24.20;94.70;;;;;;4972547;28;20445;-77
2022/06/17 06:22:48;;;;;;;1999.90;999.90;;;24.40;94.20;;;;;;4958818;28;20598;-76
2022/06/17 06:25:16;;;;;;;1999.90;999.90;;;24.50;93.90;;;;;;4955073;28;20031;-80
2022/06/17 06:27:43;;;;;;;1999.90;999.90;;;24.60;93.90;;;;;;4949403;28;20869;-80
2022/06/17 06:30:19;;;;;;;1999.90;999.90;;;24.80;93.80;;;;;;4962784;28;20034;-80
2022/06/17 06:32:53;;;;;;;1999.90;999.90;;;25.00;93.50;;;;;;4967500;28;20027;-77
2022/06/17 06:35:22;;;;;;;1999.90;999.90;;;25.10;93.50;;;;;;4966771;28;20031;-76
2022/06/17 06:37:47;;;;;;;1999.90;999.90;;;25.20;93.10;;;;;;4968364;28;20030;-77
2022/06/17 06:40:13;;;;;;;1999.90;999.90;;;25.30;92.90;;;;;;4975386;28;20035;-77
2022/06/17 06:42:39;;;;;;;1999.90;999.90;;;25.40;92.80;;;;;;4972919;28;20022;-80
2022/06/17 06:45:05;;;;;;;1999.90;999.90;;;25.50;92.50;;;;;;4972876;28;20019;-80
2022/06/17 06:47:31;;;;;;;1999.90;999.90;;;25.70;92.40;;;;;;4971264;28;20108;-77
2022/06/17 06:49:57;;;;;;;1999.90;999.90;;;25.80;92.40;;;;;;4954267;28;20495;-80
2022/06/17 06:52:22;;;;;;;1999.90;999.90;;;25.90;92.10;;;;;;4955383;28;20515;-80
2022/06/17 06:54:50;;;;;;;1999.90;999.90;;;26.10;92.10;;;;;;4951282;29;20035;-80
2022/06/17 06:57:16;;;;;;;1999.90;999.90;;;26.20;92.00;;;;;;4955700;29;20506;-80
2022/06/17 06:59:41;;;;;;;1999.90;999.90;;;26.40;91.80;;;;;;4952611;29;20418;-77
2022/06/17 07:02:09;;;;;;;1999.90;999.90;;;26.50;91.70;;;;;;4914383;29;20040;-77
2022/06/17 07:04:35;;;;;;;1999.90;999.90;;;26.60;91.30;;;;;;4937299;29;20035;-77
2022/06/17 07:07:00;;;;;;;1999.90;999.90;;;26.80;91.30;;;;;;4944348;29;20387;-79
2022/06/17 07:09:26;;;;;;;1999.90;999.90;;;27.00;91.30;;;;;;4949623;29;20046;-79
2022/06/17 07:11:51;;;;;;;1999.90;999.90;;;27.10;91.40;;;;;;4939538;29;20023;-79
2022/06/17 07:14:17;;;;;;;1999.90;999.90;;;27.30;90.90;;;;;;4939401;29;20055;-77
2022/06/17 07:16:43;;;;;;;1999.90;999.90;;;27.50;90.60;;;;;;4948249;29;20055;-80
2022/06/17 07:19:12;;;;;;;1999.90;999.90;;;27.70;90.30;;;;;;4943812;29;20114;-76
2022/06/17 07:21:38;;;;;;;1999.90;999.90;;;27.80;89.80;;;;;;4947808;29;20384;-80
2022/06/17 07:24:04;;;;;;;1999.90;999.90;;;27.90;89.60;;;;;;4951782;29;20035;-81
2022/06/17 07:26:29;;;;;;;1999.90;999.90;;;28.20;89.60;;;;;;4948738;29;20062;-77
2022/06/17 07:28:55;;;;;;;1999.90;999.90;;;28.50;89.50;;;;;;4951545;29;20042;-81
2022/06/17 07:31:22;;;;;;;1999.90;999.90;;;29.10;89.10;;;;;;4925003;29;20038;-77
2022/06/17 07:33:48;;;;;;;1999.90;999.90;;;30.40;86.50;;;;;;4943538;29;20554;-80
2022/06/17 07:39:53;;;;;;;1999.90;999.90;;;31.70;83.70;;;;;;4939340;29;20027;-80
2022/06/17 07:41:52;;;;;;;1999.90;999.90;;;33.20;81.30;;;;;;4952154;29;20086;-77
2022/06/17 07:44:18;;;;;;;1999.90;999.90;;;33.80;80.60;;;;;;4942667;29;20049;-77
2022/06/17 07:46:44;;;;;;;1999.90;999.90;;;34.20;79.00;;;;;;4919296;29;20023;-78
2022/06/17 07:49:11;;;;;;;1999.90;999.90;;;34.40;78.20;;;;;;4925775;29;20030;-81
2022/06/17 07:51:37;;;;;;;1999.90;999.90;;;34.80;76.90;;;;;;4935579;28;20027;-78
2022/06/17 07:54:03;;;;;;;1999.90;999.90;;;35.30;76.40;;;;;;4956077;28;20054;-77
2022/06/17 07:56:28;;;;;;;1999.90;999.90;;;35.60;75.20;;;;;;4950086;28;20617;-81
2022/06/17 07:58:54;;;;;;;1999.90;999.90;;;36.30;75.00;;;;;;4950241;29;20031;-81
2022/06/17 08:01:21;;;;;;;1999.90;999.90;;;37.10;74.80;;;;;;4934332;29;20031;-81
2022/06/17 08:03:46;;;;;;;1999.90;999.90;;;37.10;73.80;;;;;;4936379;29;20027;-78
2022/06/17 08:06:13;;;;;;;1999.90;999.90;;;37.30;72.30;;;;;;4952068;29;20031;-83
2022/06/17 08:08:40;;;;;;;1999.90;999.90;;;37.70;72.40;;;;;;4946274;29;20035;-76
2022/06/17 08:11:07;;;;;;;1999.90;999.90;;;38.00;71.70;;;;;;4928615;29;20042;-80
2022/06/17 08:13:32;;;;;;;1999.90;999.90;;;38.20;70.90;;;;;;4956002;28;20035;-80
2022/06/17 08:16:02;;;;;;;1999.90;999.90;;;38.20;71.50;;;;;;4951173;28;20034;-82
2022/06/17 08:18:29;;;;;;;1999.90;999.90;;;38.20;70.10;;;;;;4952924;28;20486;-77
2022/06/17 08:20:54;;;;;;;1999.90;999.90;;;38.30;70.10;;;;;;4945050;29;20097;-81
2022/06/17 08:23:21;;;;;;;1999.90;999.90;;;38.90;70.10;;;;;;4947101;29;20106;-81
2022/06/17 08:25:47;;;;;;;1999.90;999.90;;;39.50;69.00;;;;;;4950733;28;20410;-81
2022/06/17 08:28:14;;;;;;;1999.90;999.90;;;39.50;67.50;;;;;;4959854;28;20023;-81
2022/06/17 08:30:46;;;;;;;1999.90;999.90;;;39.80;67.00;;;;;;4956634;28;20063;-77
2022/06/17 08:33:11;;;;;;;1999.90;999.90;;;40.10;66.60;;;;;;4933250;29;20483;-77
2022/06/17 08:35:42;;;;;;;1999.90;999.90;;;40.40;67.60;;;;;;4951194;28;20042;-82
2022/06/17 08:38:25;;;;;;;1999.90;999.90;;;40.70;66.40;;;;;;4954059;28;20023;-81
2022/06/17 08:40:54;;;;;;;1999.90;999.90;;;40.80;65.90;;;;;;4949587;29;20154;-81
2022/06/17 08:43:41;;;;;;;1999.90;999.90;;;41.00;65.70;;;;;;4949949;29;20034;-81
2022/06/17 08:46:43;;;;;;;1999.90;999.90;;;41.50;64.40;;;;;;4915463;29;20059;-77
2022/06/17 08:49:20;;;;;;;1999.90;999.90;;;41.50;63.20;;;;;;4960769;28;20114;-77
2022/06/17 08:52:03;;;;;;;1999.90;999.90;;;41.30;63.00;;;;;;4950689;28;20035;-80
2022/06/17 08:54:29;;;;;;;1999.90;999.90;;;41.10;63.30;;;;;;4949629;28;20482;-81
2022/06/17 08:57:17;;;;;;;1999.90;999.90;;;41.30;63.30;;;;;;4948737;28;20045;-77
2022/06/17 09:00:11;;;;;;;1999.90;999.90;;;42.00;63.30;;;;;;4950962;28;20117;-77
2022/06/17 09:02:49;;;;;;;1999.90;999.90;;;42.20;62.30;;;;;;4926901;29;20524;-77
2022/06/17 09:05:29;;;;;;;1999.90;999.90;;;42.30;62.50;;;;;;4950226;28;20534;-80
2022/06/17 09:08:07;;;;;;;1999.90;999.90;;;42.60;63.70;;;;;;4937565;29;20122;-80
2022/06/17 09:10:35;;;;;;;1999.90;999.90;;;42.80;61.90;;;;;;4944115;29;20426;-79
2022/06/17 09:13:15;;;;;;;1999.90;999.90;;;43.30;61.30;;;;;;4949218;28;20031;-80
2022/06/17 09:16:01;;;;;;;1999.90;999.90;;;43.00;61.30;;;;;;4943427;28;20023;-77
2022/06/17 09:18:43;;;;;;;1999.90;999.90;;;42.60;60.80;;;;;;4951666;28;20027;-81
2022/06/17 09:21:15;;;;;;;1999.90;999.90;;;42.80;60.70;;;;;;4951295;28;20479;-80
2022/06/17 09:23:41;;;;;;;1999.90;999.90;;;43.40;61.40;;;;;;4951837;28;20031;-77
2022/06/17 09:26:20;;;;;;;1999.90;999.90;;;43.40;60.80;;;;;;4947978;29;20034;-77
2022/06/17 09:29:13;;;;;;;1999.90;999.90;;;43.60;61.40;;;;;;4938343;29;20012;-81
2022/06/17 09:31:51;;;;;;;1999.90;999.90;;;43.20;61.20;;;;;;4937950;29;20027;-80
2022/06/17 09:34:41;;;;;;;1999.90;999.90;;;43.70;61.80;;;;;;4949125;28;20050;-80
2022/06/17 09:37:20;;;;;;;1999.90;999.90;;;43.50;61.60;;;;;;4949198;29;20035;-80
2022/06/17 09:39:55;;;;;;;1999.90;999.90;;;43.50;62.50;;;;;;4947915;28;20467;-80
2022/06/17 09:42:44;;;;;;;1999.90;999.90;;;43.30;61.80;;;;;;4936370;28;20332;-77
2022/06/17 09:45:49;;;;;;;1999.90;999.90;;;43.50;61.80;;;;;;4947165;29;20026;-77
2022/06/17 09:48:22;;;;;;;1999.90;999.90;;;43.80;60.80;;;;;;4943209;28;20035;-80
2022/06/17 09:51:03;;;;;;;1999.90;999.90;;;43.70;60.20;;;;;;4950352;29;20062;-80
2022/06/17 09:53:53;;;;;;;1999.90;999.90;;;43.60;61.50;;;;;;4940616;29;20059;-80
2022/06/17 09:56:52;;;;;;;1999.90;999.90;;;43.60;59.90;;;;;;4944511;29;20023;-76
2022/06/17 09:59:48;;;;;;;1999.90;999.90;;;43.60;60.20;;;;;;4938279;28;20132;-81
2022/06/17 10:02:32;;;;;;;1999.90;999.90;;;43.80;60.60;;;;;;4935705;29;20171;-80
2022/06/17 10:05:00;;;;;;;1999.90;999.90;;;43.00;60.80;;;;;;4936343;29;20032;-76
2022/06/17 10:07:40;;;;;;;1999.90;999.90;;;43.00;60.40;;;;;;4932623;29;20059;-76
2022/06/17 10:10:23;;;;;;;1999.90;999.90;;;42.80;60.20;;;;;;4939548;29;20033;-79
2022/06/17 10:12:57;;;;;;;1999.90;999.90;;;43.00;59.90;;;;;;4947103;28;20106;-79
2022/06/17 10:15:29;;;;;;;1999.90;999.90;;;43.40;59.60;;;;;;4949023;28;20034;-76
2022/06/17 10:21:16;;;;;;;1999.90;999.90;;;43.70;59.50;;;;;;4953466;29;20046;-77
2022/06/17 10:24:13;;;;;;;1999.90;999.90;;;43.60;59.90;;;;;;4947356;28;20038;-76
2022/06/17 10:27:05;;;;;;;1999.90;999.90;;;43.80;59.70;;;;;;4953007;28;20044;-80
2022/06/17 10:29:52;;;;;;;1999.90;999.90;;;43.90;60.20;;;;;;4941715;28;20047;-77
2022/06/17 10:32:17;;;;;;;1999.90;999.90;;;43.90;60.00;;;;;;4954035;29;20483;-77
2022/06/17 10:34:54;;;;;;;1999.90;999.90;;;43.90;59.60;;;;;;4950515;28;20093;-79
2022/06/17 10:37:19;;;;;;;1999.90;999.90;;;44.10;60.20;;;;;;4961569;28;20027;-80
2022/06/17 10:39:46;;;;;;;1999.90;999.90;;;43.80;60.70;;;;;;4951349;28;20616;-76
2022/06/17 10:42:17;;;;;;;1999.90;999.90;;;43.60;59.70;;;;;;4951680;28;20035;-77
2022/06/17 10:44:47;;;;;;;1999.90;999.90;;;43.70;59.70;;;;;;4937669;29;20054;-79
2022/06/17 10:47:31;;;;;;;1999.90;999.90;;;43.70;59.50;;;;;;4938891;28;20466;-77
2022/06/17 10:50:02;;;;;;;1999.90;999.90;;;43.90;58.80;;;;;;4943352;29;20030;-78
2022/06/17 10:52:37;;;;;;;1999.90;999.90;;;43.60;58.90;;;;;;4953503;28;20461;-79
2022/06/17 10:55:03;;;;;;;1999.90;999.90;;;43.70;59.50;;;;;;4954329;28;20231;-77
2022/06/17 10:57:32;;;;;;;1999.90;999.90;;;44.00;58.60;;;;;;4969605;28;20422;-79
2022/06/17 10:59:58;;;;;;;1999.90;999.90;;;44.10;58.50;;;;;;4955165;28;20029;-77
2022/06/17 11:02:30;;;;;;;1999.90;999.90;;;43.70;58.50;;;;;;4950699;28;20023;-81
2022/06/17 11:05:02;;;;;;;1999.90;999.90;;;44.10;58.10;;;;;;4951895;28;20055;-80
2022/06/17 11:07:34;;;;;;;1999.90;999.90;;;43.70;58.70;;;;;;4952690;28;20027;-77
2022/06/17 11:10:01;;;;;;;1999.90;999.90;;;44.10;59.00;;;;;;4951275;28;20402;-77
2022/06/17 11:12:38;;;;;;;1999.90;999.90;;;44.00;58.90;;;;;;4953077;28;20062;-81
2022/06/17 11:15:19;;;;;;;1999.90;999.90;;;44.20;59.30;;;;;;4954977;28;20035;-79
2022/06/17 11:17:50;;;;;;;1999.90;999.90;;;44.10;58.90;;;;;;4954185;29;20035;-81
2022/06/17 11:20:16;;;;;;;1999.90;999.90;;;44.10;58.20;;;;;;4959663;28;20137;-82
2022/06/17 11:22:53;;;;;;;1999.90;999.90;;;43.80;58.70;;;;;;4966057;28;20106;-77
2022/06/17 11:25:41;;;;;;;1999.90;999.90;;;43.60;59.20;;;;;;4925147;29;20525;-81
2022/06/17 11:28:11;;;;;;;1999.90;999.90;;;43.60;59.60;;;;;;4955055;28;20059;-81
2022/06/17 11:30:53;;;;;;;1999.90;999.90;;;43.60;58.20;;;;;;4970361;28;20097;-77
2022/06/17 11:33:24;;;;;;;1999.90;999.90;;;43.70;59.70;;;;;;4953405;29;20440;-80
2022/06/17 11:36:00;;;;;;;1999.90;999.90;;;43.70;58.30;;;;;;4955898;28;20037;-81
2022/06/17 11:38:27;;;;;;;1999.90;999.90;;;44.00;59.00;;;;;;4961459;28;20027;-81
2022/06/17 11:41:00;;;;;;;1999.90;999.90;;;43.90;59.20;;;;;;4955475;28;20031;-81
2022/06/17 11:43:41;;;;;;;1999.90;999.90;;;43.80;58.80;;;;;;4955218;28;20019;-82
2022/06/17 11:46:11;;;;;;;1999.90;999.90;;;43.10;58.40;;;;;;4947378;28;20046;-77
2022/06/17 11:48:43;;;;;;;1999.90;999.90;;;42.90;58.80;;;;;;4941134;28;20069;-82
2022/06/17 11:51:15;;;;;;;1999.90;999.90;;;43.20;58.40;;;;;;4941555;28;20100;-81
2022/06/17 11:53:52;;;;;;;1999.90;999.90;;;43.20;58.50;;;;;;4960590;28;20410;-84
2022/06/17 11:56:33;;;;;;;1999.90;999.90;;;43.40;58.10;;;;;;4960775;28;20430;-82
2022/06/17 11:59:16;;;;;;;1999.90;999.90;;;43.50;58.50;;;;;;4934922;29;20054;-83
2022/06/17 12:02:07;;;;;;;1999.90;999.90;;;43.30;58.30;;;;;;4950183;29;20078;-81
2022/06/17 12:04:59;;;;;;;1999.90;999.90;;;43.40;59.40;;;;;;4948728;29;20039;-77
2022/06/17 12:07:34;;;;;;;1999.90;999.90;;;43.70;58.20;;;;;;4947943;28;20123;-82
2022/06/17 12:10:35;;;;;;;1999.90;999.90;;;43.70;57.90;;;;;;4955199;28;20454;-77
2022/06/17 12:13:25;;;;;;;1999.90;999.90;;;43.50;57.70;;;;;;4953439;28;20023;-78
2022/06/17 12:15:52;;;;;;;1999.90;999.90;;;43.50;58.00;;;;;;4964646;28;20450;-77
2022/06/17 12:18:24;;;;;;;1999.90;999.90;;;43.20;57.00;;;;;;4949954;28;20411;-77
2022/06/17 12:21:02;;;;;;;1999.90;999.90;;;43.00;56.90;;;;;;4953144;28;20043;-82
2022/06/17 12:23:51;;;;;;;1999.90;999.90;;;42.80;57.00;;;;;;4942191;28;20031;-81
2022/06/17 12:26:28;;;;;;;1999.90;999.90;;;42.80;58.30;;;;;;4910491;28;20089;-77
2022/06/17 12:29:27;;;;;;;1999.90;999.90;;;43.00;58.40;;;;;;4972767;28;20026;-77
2022/06/17 12:32:14;;;;;;;1999.90;999.90;;;43.10;57.80;;;;;;4955368;28;20030;-83
2022/06/17 12:35:07;;;;;;;1999.90;999.90;;;43.50;57.40;;;;;;4960022;28;20418;-81
2022/06/17 12:37:39;;;;;;;1999.90;999.90;;;43.60;56.80;;;;;;4947307;28;20135;-80
2022/06/17 12:40:24;;;;;;;1999.90;999.90;;;43.60;55.90;;;;;;4956938;28;20099;-77